Flight Track Log - Related Links

Times and Time Zones

All times are in EDT time to prevent confusion due to time zone crossing. See the SKW6290 flight status page for this flight to view local times or setup timezone preferences in your user account.

Time Position Orientation Groundspeed Altitude Reporting Facility
EDT Latitude Longitude Course Direction KTS MPH feet Rate Location/Type
Fri 09:15:13 PM 37.6500 -122.3667 122° Southeast 165 190 1,400  Level Northern Cal TRACON
Fri 09:16:13 PM 37.7167 -122.3833 349° North 232 267 3,000 2,050 Climbing Northern Cal TRACON
Fri 09:17:00 PM 37.2331 -121.7291 131° Southeast  Level Estimated
Fri 09:17:13 PM 37.6833 -122.4500 238° Southwest 285 328 5,500  Level Northern Cal TRACON
Fri 09:18:00 PM 37.1555 -121.6006 122° Southeast  Level Estimated
Fri 09:18:13 PM 37.6000 -122.4333 171° South 298 343 8,000  Level Northern Cal TRACON
Fri 09:19:00 PM 37.0778 -121.4725 130° Southeast  Level Estimated
Fri 09:19:14 PM 37.5167 -122.4000 162° South 311 358 10,600  Level Northern Cal TRACON
Fri 09:20:00 PM 36.9999 -121.3446 122° Southeast  Level Estimated
Fri 09:20:14 PM 37.4500 -122.3167 135° Southeast 339 390 12,200  Level Northern Cal TRACON
Fri 09:21:22 PM 37.3944 -122.2225 127° Southeast 347 399 14,100 1,674 Climbing Oakland Center
Fri 09:22:23 PM 37.3328 -122.1231 128° Southeast 360 414 15,800 1,659 Climbing Oakland Center
Fri 09:23:25 PM 37.2692 -122.0242 129° Southeast 365 420 17,500 1,463 Climbing Oakland Center
Fri 09:24:26 PM 37.2039 -121.9203 128° Southeast 377 434 18,800 1,317 Climbing Oakland Center
Fri 09:25:28 PM 37.1339 -121.8103 129° Southeast 387 445 20,200 1,366 Climbing Oakland Center
Fri 09:26:29 PM 37.0522 -121.6861 129° Southeast 399 459 21,600 1,328 Climbing Oakland Center
Fri 09:27:30 PM 36.9825 -121.5753 128° Southeast 405 466 22,900 1,122 Climbing Oakland Center
Fri 09:28:32 PM 36.9108 -121.4597 128° Southeast 416 479 23,900 976 Climbing Oakland Center
Fri 09:29:33 PM 36.8378 -121.3447 128° Southeast 423 487 24,900 934 Climbing Oakland Center
Fri 09:30:34 PM 36.7656 -121.2358 130° Southeast 426 490 25,800 976 Climbing Oakland Center
Fri 09:31:36 PM 36.6903 -121.1192 129° Southeast 431 496 26,900 927 Climbing Oakland Center
Fri 09:32:37 PM 36.5997 -120.9764 128° Southeast 435 501 27,700 780 Climbing Oakland Center
Fri 09:33:39 PM 36.5233 -120.8583 129° Southeast 437 503 28,500 634 Climbing Oakland Center
Fri 09:34:40 PM 36.4453 -120.7394 129° Southeast 442 509 29,000 246 Climbing Oakland Center
Fri 09:35:41 PM 36.3650 -120.6181 129° Southeast 452 520 29,000  Level Oakland Center
Fri 09:36:43 PM 36.2850 -120.4939 129° Southeast 458 527 29,000  Level Oakland Center
Fri 09:37:44 PM 36.2044 -120.3703 129° Southeast 460 529 29,000  Level Oakland Center
Fri 09:38:46 PM 36.1247 -120.2497 129° Southeast 455 524 29,000  Level Oakland Center
Fri 09:39:47 PM 36.0453 -120.1294 129° Southeast 452 520 29,000  Level Oakland Center
Fri 09:40:48 PM 35.9661 -120.0122 130° Southeast 445 512 29,000  Level Oakland Center
Fri 09:41:50 PM 35.8883 -119.8953 129° Southeast 442 509 29,000  Level Oakland Center
Fri 09:42:51 PM 35.7936 -119.7542 130° Southeast 442 509 29,000  Level Oakland Center
Fri 09:43:52 PM 35.7158 -119.6381 130° Southeast 438 504 29,000  Level Oakland Center
Fri 09:44:54 PM 35.6381 -119.5231 130° Southeast 436 502 29,000  Level Oakland Center
Fri 09:45:55 PM 35.5600 -119.4086 130° Southeast 436 502 29,000  Level Oakland Center
Fri 09:46:56 PM 35.4831 -119.2933 129° Southeast 435 501 29,000  Level Oakland Center
Fri 09:47:58 PM 35.4058 -119.1806 130° Southeast 434 499 29,000  Level Oakland Center
Fri 09:48:59 PM 35.3292 -119.0669 130° Southeast 433 498 29,000  Level Oakland Center
Fri 09:50:00 PM 35.2519 -118.9542 130° Southeast 432 497 29,000  Level Oakland Center
Fri 09:51:02 PM 35.1742 -118.8422 130° Southeast 431 496 29,000  Level Oakland Center
Fri 09:52:03 PM 35.0972 -118.7292 130° Southeast 433 498 29,000  Level Oakland Center
Fri 09:53:04 PM 35.0053 -118.5942 130° Southeast 432 497 29,000 -507 Level Oakland Center
Fri 09:54:25 PM 34.9006 -118.4483 131° Southeast 432 497 27,800 -1,133 Descending Los Angeles Center
Fri 09:55:27 PM 34.8247 -118.3417 131° Southeast 422 486 26,300 -1,415 Descending Los Angeles Center
Fri 09:56:28 PM 34.7553 -118.2439 131° Southeast 391 450 24,900 -1,366 Descending Los Angeles Center
Fri 09:57:30 PM 34.6844 -118.1436 131° Southeast 392 451 23,500 -1,355 Descending Los Angeles Center
Fri 09:58:32 PM 34.6186 -118.0367 127° Southeast 400 460 22,100 -1,355 Descending Los Angeles Center
Fri 09:59:34 PM 34.5661 -117.9239 119° Southeast 388 447 20,700 -1,268 Descending Los Angeles Center
Fri 10:00:35 PM 34.5086 -117.7989 119° Southeast 360 414 19,500 -1,073 Descending Los Angeles Center
Fri 10:01:37 PM 34.4611 -117.6964 119° Southeast 352 405 18,500 -919 Descending Los Angeles Center
Fri 10:02:39 PM 34.4133 -117.5931 119° Southeast 352 405 17,600 -732 Descending Los Angeles Center
Fri 10:03:40 PM 34.3708 -117.4969 118° Southeast 347 399 17,000 -293 Descending Los Angeles Center
Fri 10:04:42 PM 34.3150 -117.3764 119° Southeast 342 394 17,000  Level Los Angeles Center
Fri 10:05:44 PM 34.2683 -117.2775 120° Southeast 338 389 17,000 -44 Level Los Angeles Center
Fri 10:06:58 PM 34.2186 -117.1722 120° Southeast 347 399 16,900 -618 Descending Los Angeles Center
Fri 10:08:00 PM 34.1639 -117.0542 119° Southeast 338 389 15,600 -1,096 Descending Los Angeles Center
Fri 10:08:53 PM 34.1167 -116.9667 123° Southeast 327 376 14,800 -763 Descending Southern California TRACON
Fri 10:10:53 PM 34.0333 -116.7833 119° Southeast 317 365 13,400 -1,100 Descending Southern California TRACON
Fri 10:11:53 PM 33.9833 -116.6833 121° Southeast 321 369 11,500 -2,300 Descending Southern California TRACON
Fri 10:12:53 PM 33.9333 -116.6000 126° Southeast 306 352 8,800 -2,600 Descending Southern California TRACON
Fri 10:13:53 PM 33.9000 -116.5333 121° Southeast 278 320 6,300 -2,200 Descending Southern California TRACON
Fri 10:14:53 PM 33.8500 -116.4667 132° Southeast 260 299 4,400 -1,750 Descending Southern California TRACON
Fri 10:15:53 PM 33.8000 -116.4167 140° Southeast 227 261 2,800 -1,400 Descending Southern California TRACON
Fri 10:16:53 PM 33.7833 -116.4667 248° West 166 191 1,600 -1,050 Descending Southern California TRACON
Fri 10:17:53 PM 33.8167 -116.5000 320° Northwest 139 160 700 -900 Descending Southern California TRACON

Login

Don't have an account? Register now (free) for customized features, flight alerts, and more!